createdAt,value
2023-03-16T00:02:12.609Z,91.05
2023-03-16T00:04:48.032Z,91.88
2023-03-16T00:07:17.724Z,91.48
2023-03-16T00:09:47.368Z,92.39
2023-03-16T00:12:22.294Z,93.24
2023-03-16T00:14:53.817Z,94.14
2023-03-16T00:17:23.564Z,96.00
2023-03-16T00:19:55.634Z,95.58
2023-03-16T00:22:32.113Z,95.46
2023-03-16T00:25:01.474Z,95.71
2023-03-16T00:27:31.835Z,95.19
2023-03-16T00:30:03.390Z,94.99
2023-03-16T00:32:36.823Z,95.53
2023-03-16T00:35:17.159Z,95.18
2023-03-16T00:37:46.582Z,94.85
2023-03-16T00:40:16.450Z,94.74
2023-03-16T00:42:54.694Z,94.61
2023-03-16T00:45:25.776Z,94.73
2023-03-16T00:47:55.461Z,94.38
2023-03-16T00:50:24.633Z,94.01
2023-03-16T00:52:54.616Z,94.14
2023-03-16T00:55:23.763Z,94.40
2023-03-16T00:57:53.004Z,94.29
2023-03-16T01:00:26.216Z,94.51
2023-03-16T01:02:57.619Z,94.42
2023-03-16T01:05:36.963Z,94.25
2023-03-16T01:08:06.894Z,94.34
2023-03-16T01:10:36.744Z,94.16
2023-03-16T01:13:12.711Z,94.42
2023-03-16T01:15:42.502Z,93.42
2023-03-16T01:18:14.316Z,94.42
2023-03-16T01:20:50.625Z,94.14
2023-03-16T01:23:20.235Z,95.42
2023-03-16T01:25:52.803Z,94.17
2023-03-16T01:28:29.320Z,93.76
2023-03-16T01:31:04.806Z,93.96
2023-03-16T01:36:17.618Z,93.97
2023-03-16T01:39:03.683Z,93.85
2023-03-16T01:41:43.834Z,93.45
2023-03-16T01:44:20.622Z,93.37
2023-03-16T01:46:50.041Z,93.51
2023-03-16T01:49:32.421Z,93.52
2023-03-16T01:52:07.433Z,93.06
2023-03-16T01:57:18.556Z,93.09
2023-03-16T01:59:53.384Z,93.15
2023-03-16T02:02:25.848Z,93.51
2023-03-16T02:05:03.767Z,93.25
2023-03-16T02:07:37.969Z,92.64
2023-03-16T02:10:14.628Z,92.54
2023-03-16T02:12:45.486Z,92.24
2023-03-16T02:15:16.560Z,92.29
2023-03-16T02:17:47.654Z,92.33
2023-03-16T02:20:30.686Z,92.25
2023-03-16T02:23:00.761Z,91.72
2023-03-16T02:25:42.294Z,91.73
2023-03-16T02:28:20.886Z,91.34
2023-03-16T02:30:58.546Z,91.43
2023-03-16T02:33:28.695Z,90.80
2023-03-16T02:35:58.020Z,91.21
2023-03-16T02:38:28.428Z,91.10
2023-03-16T02:41:01.592Z,90.97
2023-03-16T02:43:39.398Z,90.99
2023-03-16T02:46:35.276Z,90.81
2023-03-16T02:49:09.625Z,90.76
2023-03-16T02:51:40.046Z,90.07
2023-03-16T02:54:09.578Z,90.29
2023-03-16T02:56:39.128Z,89.80
2023-03-16T02:59:08.575Z,89.92
2023-03-16T03:01:40.684Z,90.31
2023-03-16T03:04:10.762Z,90.04
2023-03-16T03:06:39.982Z,89.62
2023-03-16T03:09:11.062Z,89.89
2023-03-16T03:11:40.694Z,89.65
2023-03-16T03:16:51.926Z,89.67
2023-03-16T03:19:20.873Z,89.82
2023-03-16T03:21:50.539Z,89.34
2023-03-16T03:24:27.689Z,89.09
2023-03-16T03:26:56.929Z,88.80
2023-03-16T03:29:34.384Z,88.94
2023-03-16T03:32:06.308Z,89.30
2023-03-16T03:34:42.012Z,89.24
2023-03-16T03:37:11.398Z,89.30
2023-03-16T03:39:43.066Z,89.24
2023-03-16T03:42:13.334Z,89.03
2023-03-16T03:44:52.662Z,89.25
2023-03-16T03:47:24.111Z,89.03
2023-03-16T03:49:53.573Z,88.84
2023-03-16T03:52:22.855Z,88.84
2023-03-16T03:54:52.115Z,88.75
2023-03-16T03:57:22.005Z,89.11
2023-03-16T03:59:52.125Z,89.00
2023-03-16T04:02:48.456Z,89.61
2023-03-16T04:05:27.337Z,90.02
2023-03-16T04:08:02.224Z,89.50
2023-03-16T04:10:32.902Z,89.64
2023-03-16T04:13:02.982Z,89.81
2023-03-16T04:15:38.012Z,89.91
2023-03-16T04:18:25.579Z,89.91
2023-03-16T04:20:55.328Z,89.63
2023-03-16T04:23:34.825Z,89.70
2023-03-16T04:26:05.170Z,89.38
2023-03-16T04:28:40.199Z,89.25
2023-03-16T04:31:12.461Z,89.21
2023-03-16T04:33:47.564Z,89.72
2023-03-16T04:36:17.068Z,89.94
2023-03-16T04:38:46.858Z,89.90
2023-03-16T04:41:16.891Z,90.20
2023-03-16T04:43:54.599Z,90.63
2023-03-16T04:46:27.185Z,90.78
2023-03-16T04:48:58.849Z,91.09
2023-03-16T04:51:30.903Z,91.10
2023-03-16T04:54:10.834Z,91.23
2023-03-16T04:56:46.366Z,91.64
2023-03-16T04:59:29.307Z,91.91
2023-03-16T05:02:09.223Z,91.85
2023-03-16T05:04:41.051Z,93.26
2023-03-16T05:07:13.651Z,92.88
2023-03-16T05:09:47.129Z,92.80
2023-03-16T05:12:16.991Z,93.05
2023-03-16T05:14:47.883Z,93.38
2023-03-16T05:20:18.291Z,92.23
2023-03-16T05:22:58.223Z,92.45
2023-03-16T05:25:31.177Z,92.30
2023-03-16T05:28:05.007Z,92.31
2023-03-16T05:30:56.062Z,92.24
2023-03-16T05:33:30.609Z,91.83
2023-03-16T05:36:09.125Z,92.75
2023-03-16T05:38:41.610Z,92.44
2023-03-16T05:41:24.828Z,92.79
2023-03-16T05:44:05.754Z,92.89
2023-03-16T05:47:04.358Z,92.20
2023-03-16T05:49:35.936Z,91.78
2023-03-16T05:52:12.726Z,91.93
2023-03-16T05:54:47.104Z,92.61
2023-03-16T05:57:17.182Z,92.83
2023-03-16T05:59:48.649Z,92.90
2023-03-16T06:02:18.244Z,92.59
2023-03-16T06:04:47.828Z,93.08
2023-03-16T06:07:24.119Z,92.91
2023-03-16T06:09:56.652Z,92.69
2023-03-16T06:12:34.030Z,92.80
2023-03-16T06:15:03.266Z,92.20
2023-03-16T06:17:32.843Z,92.14
2023-03-16T06:20:10.575Z,91.98
2023-03-16T06:22:44.598Z,91.52
2023-03-16T06:25:15.750Z,91.27
2023-03-16T06:27:48.721Z,90.65
2023-03-16T06:30:29.889Z,90.72
2023-03-16T06:32:59.826Z,90.34
2023-03-16T06:35:29.119Z,90.18
2023-03-16T06:38:29.745Z,89.85
2023-03-16T06:41:03.927Z,90.17
2023-03-16T06:43:36.573Z,90.32
2023-03-16T06:46:06.276Z,89.95
2023-03-16T06:48:35.659Z,90.42
2023-03-16T06:51:11.075Z,90.37
2023-03-16T06:53:42.252Z,90.25
2023-03-16T06:56:11.612Z,90.30
2023-03-16T07:01:23.705Z,89.95
2023-03-16T07:03:52.877Z,89.77
2023-03-16T07:06:26.840Z,89.44
2023-03-16T07:08:58.772Z,88.82
2023-03-16T07:11:30.241Z,88.10
2023-03-16T07:14:01.205Z,88.08
2023-03-16T07:16:32.568Z,88.27
2023-03-16T07:19:05.091Z,88.10
2023-03-16T07:21:42.372Z,87.87
2023-03-16T07:24:18.619Z,86.66
2023-03-16T07:26:53.391Z,85.55
2023-03-16T07:29:33.735Z,85.24
2023-03-16T07:32:05.033Z,84.84
2023-03-16T07:34:39.279Z,84.29
2023-03-16T07:37:25.090Z,83.25
2023-03-16T07:40:00.652Z,83.96
2023-03-16T07:42:29.943Z,84.41
2023-03-16T07:45:09.171Z,84.03
2023-03-16T07:47:39.233Z,85.41
2023-03-16T07:50:18.966Z,85.40
2023-03-16T07:52:50.294Z,85.65
2023-03-16T07:55:26.628Z,85.74
2023-03-16T07:57:56.945Z,85.97
2023-03-16T08:00:32.453Z,85.64
2023-03-16T08:05:38.050Z,85.35
2023-03-16T08:08:23.245Z,85.81
2023-03-16T08:10:56.594Z,85.74
2023-03-16T08:13:35.128Z,86.68
2023-03-16T08:16:05.073Z,87.10
2023-03-16T08:18:41.448Z,87.07
2023-03-16T08:21:11.528Z,86.53
2023-03-16T08:23:47.058Z,85.05
2023-03-16T08:26:19.221Z,83.82
2023-03-16T08:28:56.782Z,83.41
2023-03-16T08:31:26.329Z,82.73
2023-03-16T08:34:09.651Z,82.69
2023-03-16T08:36:43.988Z,82.43
2023-03-16T08:39:15.396Z,82.55
2023-03-16T08:41:50.790Z,82.87
2023-03-16T08:44:39.644Z,82.53
2023-03-16T08:47:10.148Z,82.76
2023-03-16T08:49:46.580Z,82.93
2023-03-16T08:52:18.435Z,83.00
2023-03-16T08:55:03.065Z,83.97
2023-03-16T08:57:41.353Z,84.65
2023-03-16T09:00:13.520Z,85.22
2023-03-16T09:02:43.445Z,84.99
2023-03-16T09:05:14.427Z,85.39
2023-03-16T09:07:44.169Z,85.58
2023-03-16T09:10:20.680Z,85.20
2023-03-16T09:12:52.326Z,85.43
2023-03-16T09:15:23.494Z,85.72
2023-03-16T09:17:53.967Z,86.26
2023-03-16T09:20:26.910Z,86.26
2023-03-16T09:23:04.309Z,86.54
2023-03-16T09:28:10.943Z,87.16
2023-03-16T09:30:45.806Z,87.00
2023-03-16T09:33:15.075Z,87.07
2023-03-16T09:35:51.654Z,86.14
2023-03-16T09:38:21.350Z,85.57
2023-03-16T09:40:57.611Z,84.54
2023-03-16T09:43:48.935Z,84.19
2023-03-16T09:46:28.617Z,84.59
2023-03-16T09:49:04.585Z,84.53
2023-03-16T09:51:51.663Z,84.31
2023-03-16T09:54:27.290Z,84.78
2023-03-16T09:57:03.289Z,84.18
2023-03-16T09:59:34.411Z,84.43
2023-03-16T10:02:35.293Z,83.85
2023-03-16T10:05:10.400Z,83.15
2023-03-16T10:07:52.246Z,81.90
2023-03-16T10:10:40.962Z,82.82
2023-03-16T10:13:19.531Z,82.70
2023-03-16T10:15:52.999Z,82.99
2023-03-16T10:18:24.273Z,82.89
2023-03-16T10:20:55.290Z,82.59
2023-03-16T10:23:27.283Z,81.61
2023-03-16T10:25:58.043Z,81.40
2023-03-16T10:31:14.721Z,78.84
2023-03-16T10:33:44.385Z,79.46
2023-03-16T10:36:18.933Z,79.60
2023-03-16T10:38:54.873Z,80.53
2023-03-16T10:41:27.550Z,81.25
2023-03-16T10:44:04.473Z,82.27
2023-03-16T10:46:40.467Z,81.85
2023-03-16T10:49:27.159Z,81.79
2023-03-16T10:52:08.669Z,82.86
2023-03-16T10:54:40.965Z,84.01
2023-03-16T10:57:21.094Z,85.64
2023-03-16T11:00:15.965Z,86.52
2023-03-16T11:02:53.822Z,85.67
2023-03-16T11:05:31.923Z,85.75
2023-03-16T11:08:03.595Z,85.48
2023-03-16T11:10:40.490Z,85.28
2023-03-16T11:13:24.234Z,84.47
2023-03-16T11:16:01.225Z,85.36
2023-03-16T11:18:47.024Z,85.54
2023-03-16T11:21:32.155Z,85.10
2023-03-16T11:24:04.602Z,84.53
2023-03-16T11:26:48.945Z,84.52
2023-03-16T11:29:25.273Z,84.93
2023-03-16T11:31:58.219Z,85.48
2023-03-16T11:34:31.595Z,85.54
2023-03-16T11:37:12.900Z,85.51
2023-03-16T11:39:52.295Z,85.15
2023-03-16T11:42:35.573Z,84.67
2023-03-16T11:45:20.715Z,85.22
2023-03-16T11:48:12.457Z,85.20
2023-03-16T11:50:59.363Z,85.75
2023-03-16T11:53:48.272Z,85.70
2023-03-16T11:56:24.982Z,85.03
2023-03-16T11:59:22.316Z,85.15
2023-03-16T12:02:04.691Z,85.19
2023-03-16T12:04:48.111Z,84.93
2023-03-16T12:07:35.502Z,85.28
2023-03-16T12:10:20.014Z,85.13
2023-03-16T12:13:03.757Z,84.50
2023-03-16T12:15:38.038Z,84.63
2023-03-16T12:18:15.834Z,85.03
2023-03-16T12:20:51.927Z,84.79
2023-03-16T12:23:29.249Z,84.67
2023-03-16T12:26:01.366Z,84.39
2023-03-16T12:28:33.022Z,84.73
2023-03-16T12:31:15.725Z,84.75
2023-03-16T12:34:01.542Z,84.52
2023-03-16T12:37:00.629Z,84.40
2023-03-16T12:40:07.224Z,83.99
2023-03-16T12:43:11.219Z,84.60
2023-03-16T12:52:57.925Z,83.10
2023-03-16T12:55:46.438Z,84.67
2023-03-16T12:58:24.617Z,84.93
2023-03-16T13:01:00.501Z,84.87
2023-03-16T13:03:30.903Z,85.32
2023-03-16T13:06:03.053Z,85.43
2023-03-16T13:08:45.685Z,86.20
2023-03-16T13:11:16.117Z,86.45
2023-03-16T13:14:05.995Z,87.07
2023-03-16T13:16:38.126Z,87.30
2023-03-16T13:19:27.937Z,89.76
2023-03-16T13:22:06.546Z,89.78
2023-03-16T13:24:41.860Z,90.22
2023-03-16T13:27:28.972Z,90.19
2023-03-16T13:30:01.951Z,89.73
2023-03-16T13:32:36.206Z,90.35
2023-03-16T13:35:11.776Z,92.62
2023-03-16T13:37:44.326Z,92.39
2023-03-16T13:40:24.268Z,92.46
2023-03-16T13:42:55.878Z,92.46
2023-03-16T13:45:34.771Z,93.07
2023-03-16T13:48:05.102Z,93.37
2023-03-16T13:50:35.750Z,93.24
2023-03-16T13:53:08.384Z,93.58
2023-03-16T13:55:47.390Z,94.01
2023-03-16T13:58:25.498Z,94.05
2023-03-16T14:01:01.221Z,93.31
2023-03-16T14:03:35.591Z,92.64
2023-03-16T14:06:05.856Z,91.88
2023-03-16T14:08:35.696Z,91.37
2023-03-16T14:11:07.044Z,90.85
2023-03-16T14:13:38.906Z,90.30
2023-03-16T14:16:18.030Z,90.08
2023-03-16T14:18:49.381Z,89.84
2023-03-16T14:21:21.467Z,91.73
2023-03-16T14:23:54.994Z,93.12
2023-03-16T14:26:26.687Z,95.04
2023-03-16T14:28:57.992Z,95.18
2023-03-16T14:31:35.507Z,95.36
2023-03-16T14:34:08.461Z,95.36
2023-03-16T14:36:43.035Z,95.99
2023-03-16T14:39:13.639Z,98.32
2023-03-16T14:41:45.417Z,99.53
2023-03-16T14:44:27.607Z,99.75
2023-03-16T14:46:59.050Z,98.92
2023-03-16T14:49:31.347Z,99.43
2023-03-16T14:52:08.060Z,100.00
2023-03-16T14:54:37.460Z,100.00
2023-03-16T14:57:08.989Z,100.00
2023-03-16T14:59:38.214Z,100.00
2023-03-16T15:02:18.386Z,100.00
2023-03-16T15:04:49.442Z,100.00
2023-03-16T15:07:29.244Z,100.00
2023-03-16T15:10:05.125Z,100.00
2023-03-16T15:12:37.679Z,100.00
2023-03-16T15:15:17.712Z,100.00
2023-03-16T15:17:47.883Z,100.00
2023-03-16T15:20:19.809Z,100.00
2023-03-16T15:22:51.026Z,100.00
2023-03-16T15:25:29.934Z,100.00
2023-03-16T15:28:01.860Z,100.00
2023-03-16T15:30:32.188Z,100.00
2023-03-16T15:33:07.166Z,100.00
2023-03-16T15:35:38.302Z,100.00
2023-03-16T15:41:02.749Z,100.00
2023-03-16T15:43:34.172Z,100.00
2023-03-16T15:46:04.723Z,100.00
2023-03-16T15:48:34.602Z,100.00
2023-03-16T15:51:08.238Z,100.00
2023-03-16T15:53:40.945Z,100.00
2023-03-16T15:56:12.800Z,100.00
2023-03-16T15:58:52.409Z,100.00
2023-03-16T16:01:25.084Z,100.00
2023-03-16T16:03:59.584Z,100.00
2023-03-16T16:06:29.970Z,100.00
2023-03-16T16:09:06.101Z,100.00
2023-03-16T16:11:35.447Z,100.00
2023-03-16T16:14:11.989Z,100.00
2023-03-16T16:16:41.644Z,100.00
2023-03-16T16:19:15.216Z,100.00
2023-03-16T16:21:45.927Z,100.00
2023-03-16T16:24:15.186Z,100.00
2023-03-16T16:26:54.804Z,100.00
2023-03-16T16:29:29.917Z,100.00
2023-03-16T16:31:59.280Z,100.00
2023-03-16T16:34:28.802Z,100.00
2023-03-16T16:37:08.226Z,100.00
2023-03-16T16:39:40.066Z,100.00
2023-03-16T16:42:18.023Z,100.00
2023-03-16T16:44:49.168Z,100.00
2023-03-16T16:47:22.414Z,100.00
2023-03-16T16:49:52.251Z,100.00
2023-03-16T16:52:22.202Z,100.00
2023-03-16T16:54:51.345Z,100.00
2023-03-16T16:57:21.986Z,100.00
2023-03-16T16:59:53.126Z,100.00
2023-03-16T17:02:33.156Z,100.00
2023-03-16T17:05:09.027Z,100.00
2023-03-16T17:07:38.748Z,100.00
2023-03-16T17:10:09.359Z,100.00
2023-03-16T17:12:43.575Z,100.00
2023-03-16T17:15:29.022Z,100.00
2023-03-16T17:18:08.852Z,100.00
2023-03-16T17:20:38.514Z,100.00
2023-03-16T17:23:28.857Z,100.00
2023-03-16T17:25:59.858Z,100.00
2023-03-16T17:28:30.851Z,100.00
2023-03-16T17:31:02.194Z,100.00
2023-03-16T17:33:31.556Z,100.00
2023-03-16T17:36:01.567Z,100.00
2023-03-16T17:38:30.934Z,100.00
2023-03-16T17:41:00.258Z,100.00
2023-03-16T17:43:31.437Z,100.00
2023-03-16T17:46:04.959Z,100.00
2023-03-16T17:48:40.761Z,100.00
2023-03-16T17:51:14.787Z,100.00
2023-03-16T17:53:48.985Z,100.00
2023-03-16T17:56:20.480Z,100.00
2023-03-16T17:58:58.907Z,100.00
2023-03-16T18:01:35.509Z,100.00
2023-03-16T18:06:50.874Z,100.00
2023-03-16T18:09:27.008Z,100.00
2023-03-16T18:11:57.274Z,100.00
2023-03-16T18:14:36.298Z,100.00
2023-03-16T18:17:17.665Z,100.00
2023-03-16T18:19:48.451Z,100.00
2023-03-16T18:22:19.793Z,100.00
2023-03-16T18:25:00.577Z,100.00
2023-03-16T18:27:29.856Z,100.00
2023-03-16T18:29:59.565Z,100.00
2023-03-16T18:32:32.061Z,100.00
2023-03-16T18:35:03.834Z,100.00
2023-03-16T18:37:38.569Z,100.00
2023-03-16T18:40:12.384Z,100.00
2023-03-16T18:42:48.446Z,100.00
2023-03-16T18:45:18.511Z,100.00
2023-03-16T18:47:58.271Z,100.00
2023-03-16T18:50:30.470Z,100.00
2023-03-16T18:52:59.752Z,100.00
2023-03-16T18:55:35.260Z,100.00
2023-03-16T18:58:13.241Z,100.00
2023-03-16T19:00:42.629Z,100.00
2023-03-16T19:03:23.254Z,100.00
2023-03-16T19:05:52.662Z,100.00
2023-03-16T19:08:22.961Z,100.00
2023-03-16T19:11:05.213Z,100.00
2023-03-16T19:13:34.366Z,100.00
2023-03-16T19:16:04.712Z,100.00
2023-03-16T19:18:41.649Z,100.00
2023-03-16T19:21:14.743Z,100.00
2023-03-16T19:23:55.930Z,100.00
2023-03-16T19:26:25.395Z,100.00
2023-03-16T19:28:54.616Z,100.00
2023-03-16T19:31:32.340Z,100.00
2023-03-16T19:34:03.599Z,100.00
2023-03-16T19:36:44.155Z,100.00
2023-03-16T19:39:15.077Z,100.00
2023-03-16T19:44:24.856Z,100.00
2023-03-16T19:47:04.224Z,100.00
2023-03-16T19:49:35.467Z,100.00
2023-03-16T19:52:04.633Z,99.81
2023-03-16T19:54:34.615Z,100.00
2023-03-16T19:57:18.633Z,100.00
2023-03-16T19:59:51.009Z,100.00
2023-03-16T20:02:29.019Z,100.00
2023-03-16T20:05:00.236Z,100.00
2023-03-16T20:07:37.695Z,99.68
2023-03-16T20:10:07.575Z,99.43
2023-03-16T20:12:38.271Z,99.64
2023-03-16T20:15:08.285Z,99.86
2023-03-16T20:17:37.872Z,99.24
2023-03-16T20:20:21.894Z,99.28
2023-03-16T20:22:52.026Z,98.51
2023-03-16T20:25:34.743Z,99.01
2023-03-16T20:28:04.839Z,98.65
2023-03-16T20:30:34.277Z,99.38
2023-03-16T20:33:08.432Z,98.89
2023-03-16T20:38:15.639Z,98.85
2023-03-16T20:40:46.777Z,99.24
2023-03-16T20:43:27.220Z,99.50
2023-03-16T20:46:05.533Z,99.56
2023-03-16T20:48:35.107Z,100.00
2023-03-16T20:51:07.958Z,99.26
2023-03-16T20:53:37.486Z,99.48
2023-03-16T20:56:07.354Z,99.30
2023-03-16T20:58:37.595Z,98.94
2023-03-16T21:01:17.437Z,99.80
2023-03-16T21:03:48.222Z,99.01
2023-03-16T21:06:29.391Z,99.32
2023-03-16T21:09:00.759Z,98.89
2023-03-16T21:11:36.252Z,99.47
2023-03-16T21:14:07.422Z,99.06
2023-03-16T21:16:36.779Z,99.06
2023-03-16T21:19:13.828Z,98.64
2023-03-16T21:21:45.974Z,98.44
2023-03-16T21:24:15.230Z,98.32
2023-03-16T21:26:46.993Z,98.45
2023-03-16T21:29:23.253Z,98.00
2023-03-16T21:31:54.882Z,97.48
2023-03-16T21:34:32.743Z,97.72
2023-03-16T21:37:03.917Z,96.88
2023-03-16T21:39:38.271Z,97.26
2023-03-16T21:42:07.588Z,97.92
2023-03-16T21:44:37.202Z,97.81
2023-03-16T21:47:24.054Z,97.31
2023-03-16T21:49:53.433Z,97.51
2023-03-16T21:52:27.761Z,96.95
2023-03-16T21:55:02.182Z,97.62
2023-03-16T21:57:37.048Z,98.36
2023-03-16T22:00:07.224Z,97.96
2023-03-16T22:02:37.210Z,97.36
2023-03-16T22:05:26.595Z,97.21
2023-03-16T22:08:03.456Z,97.39
2023-03-16T22:10:32.735Z,97.02
2023-03-16T22:13:01.784Z,96.83
2023-03-16T22:15:31.525Z,96.77
2023-03-16T22:18:03.896Z,97.23
2023-03-16T22:20:33.452Z,97.85
2023-03-16T22:23:04.541Z,97.71
2023-03-16T22:25:33.767Z,97.42
2023-03-16T22:28:03.767Z,97.83
2023-03-16T22:30:33.227Z,98.28
2023-03-16T22:33:02.567Z,97.03
2023-03-16T22:35:35.053Z,98.05
2023-03-16T22:38:08.688Z,97.50
2023-03-16T22:40:39.700Z,97.13
2023-03-16T22:43:16.300Z,97.27
2023-03-16T22:45:45.804Z,98.21
2023-03-16T22:48:19.995Z,97.88
2023-03-16T22:50:49.276Z,97.30
2023-03-16T22:53:29.929Z,96.89
2023-03-16T22:55:59.297Z,97.33
2023-03-16T22:58:39.720Z,96.94
2023-03-16T23:01:17.691Z,96.37
2023-03-16T23:03:47.535Z,96.58
2023-03-16T23:06:21.680Z,95.85
2023-03-16T23:08:54.035Z,96.59
2023-03-16T23:11:25.845Z,97.31
2023-03-16T23:13:56.356Z,97.07
2023-03-16T23:16:28.779Z,97.17
2023-03-16T23:19:04.412Z,97.09
2023-03-16T23:21:40.049Z,96.58
2023-03-16T23:24:16.320Z,96.33
2023-03-16T23:26:45.871Z,96.14
2023-03-16T23:29:16.075Z,96.19
2023-03-16T23:31:45.353Z,96.14
2023-03-16T23:34:15.909Z,96.04
2023-03-16T23:36:45.463Z,96.32
2023-03-16T23:39:16.601Z,97.45
2023-03-16T23:47:06.653Z,96.95
2023-03-16T23:49:38.460Z,96.48
2023-03-16T23:52:07.694Z,95.67
2023-03-16T23:54:38.915Z,96.10
2023-03-16T23:57:13.217Z,96.91
2023-03-16T23:59:42.304Z,96.12
